MET'MAP v2.0
soon released !

Expected late october,
this new version will be
more efficient, smarter,
and hosted on a brand new
server x3 powerfull...
...and still free !


Not compatible ?
Try the mobile version !

LOG IN : | Subscribe | Disclaimer | Who is Orbifly ? |
ICAO code :
Legend : VFR Marginal VFR IFR Intensive IFR Very Intensive IFR
Visi :
Ceiling :
>= 8 km
>= 3000ft
5 to 8 km
1000 to 3000 ft
1500m to 5 km
500 to 1000 ft
800 to 1500m
200 to 500 ft
< 800m
< 200 ft

METAR - ETSL Lechfeld AB - 02 Jul 2020 14:38 UTC
Data Sources :     NOAA   


- Airport Elevation : 1822 ft
- No reported NOTAMs.


ETSL - Lechfeld AB

Latest METAR recorded : 2015/08/11 07:20 ETSL 110720Z 27005KT 8000 FEW018 SCT080 22/18 Q1017 BLU+BLU+
TAF TAF ETSL
Valid from the 02 at 11:00 until the 02 at 20:00 UTC


021040Z 0211/0220 23008G18KT 9999 NSW BKN030
TEMPO 0211/0212 VRB20G30KT 0500 +TSRAGR BKN003 BKN020CB
TEMPO 0212/0219 VRB15G25KT 3000 SHRA BKN005 BKN020CB
PROB30 0212/0219 VRB20G30KT 0500 TSGR BKN003 BKN020CB BY ETGL

Source NOAA


MET'MAP, your aeronautical weather chart ! - Copyright ORBIFLY December 2007

Programming & Development : Alexandra Zaïnal
Co-Developer : Marc-Olivier Méhu
Technical & hardware support : Manuel Goepfert
Concept & Financing : Baudouin d'Aumeries